Terminal Aerodrome Forecast
Issued by NWS

Home | Current Version | Previous Version | Text Only | Print | Product List | Glossary Off
Versions: 1 2 3 4 5 6 7 8 9 10 11 12 13 14 15 16 17 18 19 20 21 22 23

000
FTUS42 KMHX 012042 AAB
TAFISO
TAF AMD
KISO 012042Z 0121/0218 03010G20KT P6SM -RA SCT010 BKN015 BKN025
     FM012300 36005KT P6SM SCT025 BKN035
     FM020600 33005KT P6SM SKC
     FM021400 35010G15KT P6SM SKC
      AMD LTD TO CLD VIS AND WIND=

USA.gov is the U.S. government's official web portal to all federal, state and local government web resources and services.